createdAt,value
2018-04-29T00:02:19.858Z,4.90
2018-04-29T00:04:48.185Z,5.30
2018-04-29T00:07:15.757Z,5.93
2018-04-29T00:09:43.399Z,5.67
2018-04-29T00:12:11.023Z,5.80
2018-04-29T00:14:38.640Z,6.00
2018-04-29T00:17:06.250Z,5.60
2018-04-29T00:19:34.736Z,5.53
2018-04-29T00:22:03.277Z,5.77
2018-04-29T00:24:30.968Z,6.33
2018-04-29T00:26:58.582Z,5.80
2018-04-29T00:29:26.345Z,6.00
2018-04-29T00:31:53.997Z,5.37
2018-04-29T00:34:21.716Z,5.63
2018-04-29T00:36:49.310Z,5.83
2018-04-29T00:39:16.942Z,6.30
2018-04-29T00:41:44.592Z,6.33
2018-04-29T00:44:12.128Z,5.63
2018-04-29T00:46:39.756Z,5.30
2018-04-29T00:49:08.079Z,6.00
2018-04-29T00:51:47.368Z,5.53
2018-04-29T00:54:14.982Z,5.40
2018-04-29T00:56:42.612Z,5.90
2018-04-29T00:59:10.318Z,5.53
2018-04-29T01:01:37.789Z,5.57
2018-04-29T01:04:05.420Z,5.10
2018-04-29T01:06:32.977Z,6.10
2018-04-29T01:09:00.655Z,5.40
2018-04-29T01:11:28.272Z,5.43
2018-04-29T01:13:55.866Z,5.77
2018-04-29T01:16:23.400Z,5.97
2018-04-29T01:18:51.031Z,5.10
2018-04-29T01:21:18.627Z,5.70
2018-04-29T01:23:46.248Z,5.57
2018-04-29T01:26:13.844Z,5.90
2018-04-29T01:28:41.414Z,5.60
2018-04-29T01:31:08.976Z,5.93
2018-04-29T01:33:36.658Z,5.47
2018-04-29T01:36:05.921Z,5.57
2018-04-29T01:38:33.599Z,6.03
2018-04-29T01:41:01.158Z,5.13
2018-04-29T01:43:28.736Z,6.13
2018-04-29T01:45:56.287Z,5.30
2018-04-29T01:48:23.912Z,5.50
2018-04-29T01:50:51.488Z,5.50
2018-04-29T01:53:19.086Z,5.70
2018-04-29T01:55:46.676Z,5.60
2018-04-29T01:58:14.388Z,5.40
2018-04-29T02:00:41.992Z,5.00
2018-04-29T02:03:09.616Z,6.27
2018-04-29T02:05:38.040Z,5.83
2018-04-29T02:08:05.644Z,5.50
2018-04-29T02:10:33.266Z,6.27
2018-04-29T02:13:01.601Z,5.37
2018-04-29T02:15:29.179Z,5.33
2018-04-29T02:17:56.763Z,5.67
2018-04-29T02:20:24.403Z,5.97
2018-04-29T02:22:51.957Z,5.97
2018-04-29T02:25:20.294Z,5.67
2018-04-29T02:27:47.823Z,5.37
2018-04-29T02:30:16.045Z,6.67
2018-04-29T02:32:43.585Z,5.73
2018-04-29T02:35:11.175Z,6.10
2018-04-29T02:37:38.800Z,6.00
2018-04-29T02:40:06.353Z,5.07
2018-04-29T02:42:34.259Z,5.97
2018-04-29T02:45:01.824Z,6.10
2018-04-29T02:47:29.449Z,5.93
2018-04-29T02:49:57.030Z,5.53
2018-04-29T02:52:24.683Z,6.23
2018-04-29T02:54:52.257Z,6.13
2018-04-29T02:57:19.839Z,6.57
2018-04-29T02:59:47.415Z,6.03
2018-04-29T03:02:15.819Z,5.70
2018-04-29T03:04:44.107Z,6.43
2018-04-29T03:07:11.693Z,6.57
2018-04-29T03:09:39.268Z,6.40
2018-04-29T03:12:06.857Z,6.80
2018-04-29T03:14:35.181Z,6.80
2018-04-29T03:17:02.739Z,6.20
2018-04-29T03:19:30.335Z,5.60
2018-04-29T03:21:57.891Z,7.33
2018-04-29T03:24:25.539Z,6.40
2018-04-29T03:26:53.084Z,6.33
2018-04-29T03:29:20.682Z,6.73
2018-04-29T03:31:48.321Z,6.27
2018-04-29T03:34:15.949Z,6.73
2018-04-29T03:36:43.483Z,6.83
2018-04-29T03:39:11.136Z,6.80
2018-04-29T03:41:39.566Z,6.60
2018-04-29T03:44:07.331Z,6.57
2018-04-29T03:46:34.869Z,7.10
2018-04-29T03:49:03.222Z,6.97
2018-04-29T03:51:30.806Z,6.77
2018-04-29T03:53:58.374Z,6.67
2018-04-29T03:56:26.698Z,6.93
2018-04-29T03:59:06.113Z,6.93
2018-04-29T04:01:51.287Z,6.80
2018-04-29T04:04:13.028Z,6.90
2018-04-29T04:06:40.675Z,6.77
2018-04-29T04:09:09.756Z,7.37
2018-04-29T04:11:37.304Z,6.67
2018-04-29T04:14:04.884Z,6.77
2018-04-29T04:16:32.444Z,6.90
2018-04-29T04:18:59.981Z,6.67
2018-04-29T04:21:27.545Z,6.73
2018-04-29T04:23:55.187Z,7.53
2018-04-29T04:26:22.838Z,7.80
2018-04-29T04:28:50.419Z,7.00
2018-04-29T04:31:20.859Z,7.40
2018-04-29T04:33:48.409Z,7.40
2018-04-29T04:36:15.990Z,6.77
2018-04-29T04:38:43.593Z,7.57
2018-04-29T04:41:11.259Z,6.40
2018-04-29T04:43:38.861Z,7.73
2018-04-29T04:46:06.531Z,7.60
2018-04-29T04:48:34.132Z,7.27
2018-04-29T04:51:01.997Z,7.30
2018-04-29T04:53:29.572Z,8.23
2018-04-29T04:55:57.136Z,6.73
2018-04-29T04:58:24.754Z,7.50
2018-04-29T05:00:52.348Z,7.53
2018-04-29T05:03:19.974Z,7.37
2018-04-29T05:05:47.590Z,7.23
2018-04-29T05:08:15.996Z,7.90
2018-04-29T05:10:43.659Z,8.20
2018-04-29T05:13:11.314Z,7.53
2018-04-29T05:15:38.869Z,7.80
2018-04-29T05:18:06.512Z,6.77
2018-04-29T05:20:34.842Z,7.93
2018-04-29T05:23:02.832Z,7.30
2018-04-29T05:25:30.400Z,7.33
2018-04-29T05:27:57.996Z,7.27
2018-04-29T05:30:26.425Z,7.27
2018-04-29T05:32:53.967Z,7.40
2018-04-29T05:35:21.615Z,8.90
2018-04-29T05:37:49.317Z,8.60
2018-04-29T05:40:16.926Z,9.00
2018-04-29T05:42:44.467Z,8.50
2018-04-29T05:45:12.085Z,9.27
2018-04-29T05:47:39.625Z,9.57
2018-04-29T05:50:07.265Z,10.03
2018-04-29T05:52:34.821Z,9.27
2018-04-29T05:55:03.305Z,9.37
2018-04-29T05:57:31.615Z,10.00
2018-04-29T05:59:59.295Z,9.40
2018-04-29T06:02:26.889Z,9.00
2018-04-29T06:04:55.262Z,9.63
2018-04-29T06:07:22.959Z,8.80
2018-04-29T06:09:50.647Z,8.00
2018-04-29T06:12:18.278Z,9.03
2018-04-29T06:14:45.908Z,8.47
2018-04-29T06:17:14.367Z,8.50
2018-04-29T06:19:42.991Z,8.57
2018-04-29T06:22:11.373Z,8.50
2018-04-29T06:24:39.067Z,7.33
2018-04-29T06:27:06.755Z,7.57
2018-04-29T06:29:34.345Z,7.07
2018-04-29T06:32:02.148Z,6.70
2018-04-29T06:34:30.500Z,6.87
2018-04-29T06:36:58.235Z,7.77
2018-04-29T06:39:26.189Z,7.10
2018-04-29T06:41:53.987Z,6.93
2018-04-29T06:44:22.612Z,7.23
2018-04-29T06:46:50.393Z,6.53
2018-04-29T06:49:18.204Z,6.10
2018-04-29T06:51:46.738Z,6.27
2018-04-29T06:54:14.707Z,5.90
2018-04-29T06:56:42.541Z,6.40
2018-04-29T06:59:10.922Z,6.73
2018-04-29T07:01:39.346Z,6.37
2018-04-29T07:04:07.006Z,5.93
2018-04-29T07:06:34.720Z,6.13
2018-04-29T07:09:02.411Z,6.10
2018-04-29T07:11:30.087Z,5.70
2018-04-29T07:13:57.846Z,5.53
2018-04-29T07:16:25.658Z,5.47
2018-04-29T07:18:53.348Z,6.63
2018-04-29T07:21:21.042Z,4.63
2018-04-29T07:23:48.632Z,5.47
2018-04-29T07:26:16.338Z,5.73
2018-04-29T07:28:44.065Z,5.90
2018-04-29T07:31:11.756Z,5.53
2018-04-29T07:33:39.458Z,4.77
2018-04-29T07:36:07.157Z,5.40
2018-04-29T07:38:34.822Z,4.53
2018-04-29T07:41:02.396Z,5.47
2018-04-29T07:43:30.800Z,5.17
2018-04-29T07:45:58.556Z,5.07
2018-04-29T07:48:26.414Z,5.30
2018-04-29T07:50:54.907Z,4.97
2018-04-29T07:53:22.575Z,4.90
2018-04-29T07:55:50.468Z,5.40
2018-04-29T07:58:18.245Z,5.27
2018-04-29T08:00:45.848Z,5.50
2018-04-29T08:03:13.349Z,5.63
2018-04-29T08:05:40.924Z,5.00
2018-04-29T08:08:08.484Z,5.73
2018-04-29T08:10:36.061Z,4.67
2018-04-29T08:13:03.585Z,5.40
2018-04-29T08:15:31.184Z,5.53
2018-04-29T08:17:58.674Z,5.50
2018-04-29T08:20:26.230Z,5.47
2018-04-29T08:22:53.793Z,5.30
2018-04-29T08:25:22.933Z,5.13
2018-04-29T08:27:50.450Z,5.37
2018-04-29T08:30:18.034Z,4.70
2018-04-29T08:32:45.625Z,5.30
2018-04-29T08:35:13.180Z,4.83
2018-04-29T08:37:40.704Z,5.50
2018-04-29T08:40:08.307Z,4.83
2018-04-29T08:42:35.821Z,5.07
2018-04-29T08:45:03.338Z,5.27
2018-04-29T08:47:30.912Z,4.87
2018-04-29T08:49:59.244Z,5.73
2018-04-29T08:52:26.803Z,4.93
2018-04-29T08:54:55.184Z,4.93
2018-04-29T08:57:22.629Z,5.63
2018-04-29T08:59:50.194Z,6.03
2018-04-29T09:02:17.748Z,5.10
2018-04-29T09:04:45.283Z,5.80
2018-04-29T09:07:12.855Z,5.03
2018-04-29T09:09:40.372Z,5.30
2018-04-29T09:12:08.011Z,5.37
2018-04-29T09:14:35.641Z,4.90
2018-04-29T09:17:03.281Z,5.28
2018-04-29T09:19:31.008Z,4.62
2018-04-29T09:21:58.775Z,5.32
2018-04-29T09:24:27.118Z,5.40
2018-04-29T09:26:54.921Z,4.93
2018-04-29T09:29:22.539Z,4.85
2018-04-29T09:31:50.195Z,4.55
2018-04-29T09:34:17.835Z,4.55
2018-04-29T09:36:45.557Z,4.78
2018-04-29T09:39:13.226Z,4.47
2018-04-29T09:41:40.939Z,4.72
2018-04-29T09:44:08.739Z,4.35
2018-04-29T09:46:36.437Z,5.07
2018-04-29T09:49:04.938Z,4.95
2018-04-29T09:51:32.735Z,5.15
2018-04-29T09:54:00.550Z,4.68
2018-04-29T09:56:28.096Z,4.22
2018-04-29T09:58:55.779Z,4.65
2018-04-29T10:01:26.027Z,4.47
2018-04-29T10:03:53.745Z,4.60
2018-04-29T10:06:21.363Z,4.12
2018-04-29T10:08:48.993Z,4.00
2018-04-29T10:11:16.633Z,4.60
2018-04-29T10:13:44.257Z,4.65
2018-04-29T10:16:11.795Z,4.37
2018-04-29T10:18:39.400Z,4.25
2018-04-29T10:21:06.912Z,4.75
2018-04-29T10:23:34.486Z,4.53
2018-04-29T10:26:02.043Z,3.87
2018-04-29T10:28:29.588Z,4.55
2018-04-29T10:30:57.214Z,4.57
2018-04-29T10:33:24.732Z,4.60
2018-04-29T10:35:52.309Z,4.35
2018-04-29T10:38:19.846Z,4.22
2018-04-29T10:40:47.414Z,5.00
2018-04-29T10:43:14.936Z,4.32
2018-04-29T10:45:42.591Z,4.62
2018-04-29T10:48:10.886Z,4.55
2018-04-29T10:50:38.512Z,5.03
2018-04-29T10:53:06.844Z,4.47
2018-04-29T10:55:34.433Z,4.50
2018-04-29T10:58:01.983Z,4.22
2018-04-29T11:00:29.585Z,5.22
2018-04-29T11:02:57.868Z,4.75
2018-04-29T11:05:26.184Z,4.28
2018-04-29T11:07:53.736Z,5.12
2018-04-29T11:10:21.308Z,4.30
2018-04-29T11:12:48.888Z,4.68
2018-04-29T11:15:16.481Z,4.90
2018-04-29T11:17:44.057Z,4.87
2018-04-29T11:20:11.625Z,4.80
2018-04-29T11:22:39.217Z,5.05
2018-04-29T11:25:06.845Z,4.60
2018-04-29T11:27:34.405Z,4.50
2018-04-29T11:30:01.937Z,4.47
2018-04-29T11:32:30.257Z,4.35
2018-04-29T11:34:57.771Z,4.87
2018-04-29T11:37:25.327Z,5.15
2018-04-29T11:39:53.654Z,4.75
2018-04-29T11:42:21.217Z,4.57
2018-04-29T11:44:48.723Z,4.80
2018-04-29T11:47:17.096Z,4.32
2018-04-29T11:49:44.626Z,4.62
2018-04-29T11:52:12.174Z,3.75
2018-04-29T11:54:39.696Z,4.35
2018-04-29T11:57:07.227Z,4.25
2018-04-29T11:59:34.756Z,4.53
2018-04-29T12:02:02.312Z,4.30
2018-04-29T12:04:29.851Z,4.37
2018-04-29T12:06:57.377Z,4.18
2018-04-29T12:09:24.943Z,3.72
2018-04-29T12:11:53.232Z,4.45
2018-04-29T12:14:20.843Z,3.87
2018-04-29T12:16:48.363Z,3.70
2018-04-29T12:19:15.898Z,3.45
2018-04-29T12:21:44.199Z,4.32
2018-04-29T12:24:11.751Z,3.72
2018-04-29T12:26:39.267Z,4.03
2018-04-29T12:29:06.815Z,4.30
2018-04-29T12:31:34.349Z,3.90
2018-04-29T12:34:01.917Z,3.80
2018-04-29T12:36:29.424Z,4.60
2018-04-29T12:38:57.759Z,4.43
2018-04-29T12:41:25.275Z,3.95
2018-04-29T12:43:52.789Z,4.20
2018-04-29T12:46:20.325Z,3.95
2018-04-29T12:48:47.831Z,3.90
2018-04-29T12:51:15.379Z,4.28
2018-04-29T12:53:42.891Z,4.32
2018-04-29T12:56:10.454Z,3.80
2018-04-29T12:58:37.967Z,4.40
2018-04-29T13:01:05.563Z,3.85
2018-04-29T13:03:33.067Z,4.65
2018-04-29T13:06:00.607Z,4.47
2018-04-29T13:08:28.129Z,4.60
2018-04-29T13:10:55.679Z,4.18
2018-04-29T13:13:23.948Z,4.35
2018-04-29T13:15:52.232Z,3.53
2018-04-29T13:18:20.542Z,4.12
2018-04-29T13:20:48.084Z,4.50
2018-04-29T13:23:15.656Z,4.32
2018-04-29T13:25:43.171Z,4.30
2018-04-29T13:28:10.711Z,4.20
2018-04-29T13:30:38.389Z,4.43
2018-04-29T13:33:05.934Z,4.65
2018-04-29T13:35:33.443Z,4.43
2018-04-29T13:38:00.979Z,4.53
2018-04-29T13:40:28.503Z,4.30
2018-04-29T13:42:56.051Z,4.53
2018-04-29T13:45:23.546Z,4.80
2018-04-29T13:47:51.082Z,4.00
2018-04-29T13:50:18.598Z,5.12
2018-04-29T13:52:46.140Z,4.95
2018-04-29T13:55:14.404Z,4.80
2018-04-29T13:57:42.700Z,5.20
2018-04-29T14:00:10.994Z,4.65
2018-04-29T14:02:38.507Z,5.20
2018-04-29T14:05:06.051Z,5.40
2018-04-29T14:07:33.606Z,4.80
2018-04-29T14:10:01.229Z,4.97
2018-04-29T14:12:28.748Z,5.60
2018-04-29T14:14:56.428Z,4.65
2018-04-29T14:17:24.150Z,5.50
2018-04-29T14:19:51.824Z,5.43
2018-04-29T14:22:19.342Z,5.50
2018-04-29T14:24:47.107Z,5.62
2018-04-29T14:27:14.753Z,5.62
2018-04-29T14:29:42.433Z,5.10
2018-04-29T14:32:10.036Z,4.85
2018-04-29T14:34:37.613Z,4.87
2018-04-29T14:37:05.253Z,5.72
2018-04-29T14:39:32.954Z,5.25
2018-04-29T14:42:00.626Z,5.70
2018-04-29T14:44:28.217Z,5.18
2018-04-29T14:46:55.917Z,4.93
2018-04-29T14:49:23.566Z,5.37
2018-04-29T14:51:51.245Z,5.15
2018-04-29T14:54:18.885Z,4.85
2018-04-29T14:56:47.339Z,5.28
2018-04-29T14:59:15.027Z,4.90
2018-04-29T15:01:42.698Z,5.03
2018-04-29T15:04:10.397Z,5.05
2018-04-29T15:06:38.781Z,5.00
2018-04-29T15:09:06.511Z,5.80
2018-04-29T15:11:34.303Z,5.82
2018-04-29T15:14:02.080Z,5.37
2018-04-29T15:16:29.850Z,4.70
2018-04-29T15:18:59.070Z,5.10
2018-04-29T15:21:26.616Z,5.87
2018-04-29T15:23:54.295Z,4.53
2018-04-29T15:26:21.968Z,5.20
2018-04-29T15:28:49.657Z,5.23
2018-04-29T15:31:17.258Z,6.23
2018-04-29T15:33:44.961Z,5.23
2018-04-29T15:36:12.676Z,5.80
2018-04-29T15:38:40.276Z,5.57
2018-04-29T15:41:07.884Z,5.03
2018-04-29T15:43:35.500Z,5.90
2018-04-29T15:46:03.084Z,5.13
2018-04-29T15:48:30.738Z,5.53
2018-04-29T15:50:58.342Z,5.20
2018-04-29T15:53:26.048Z,5.43
2018-04-29T15:55:53.678Z,5.60
2018-04-29T15:58:21.252Z,4.60
2018-04-29T16:00:48.974Z,6.20
2018-04-29T16:03:16.637Z,5.50
2018-04-29T16:05:44.384Z,5.47
2018-04-29T16:08:11.974Z,4.97
2018-04-29T16:10:39.652Z,4.60
2018-04-29T16:13:07.193Z,5.40
2018-04-29T16:15:35.590Z,5.60
2018-04-29T16:18:03.136Z,5.23
2018-04-29T16:20:30.699Z,4.87
2018-04-29T16:22:58.314Z,5.63
2018-04-29T16:25:25.896Z,4.93
2018-04-29T16:27:54.237Z,5.03
2018-04-29T16:30:21.792Z,5.07
2018-04-29T16:32:49.435Z,5.13
2018-04-29T16:35:17.024Z,5.00
2018-04-29T16:37:44.609Z,5.20
2018-04-29T16:40:12.930Z,5.47
2018-04-29T16:42:40.559Z,5.13
2018-04-29T16:45:08.939Z,5.00
2018-04-29T16:47:36.494Z,5.10
2018-04-29T16:50:04.093Z,4.60
2018-04-29T16:52:31.751Z,5.47
2018-04-29T16:54:59.438Z,4.70
2018-04-29T16:57:27.436Z,5.17
2018-04-29T16:59:54.998Z,5.07
2018-04-29T17:02:22.663Z,4.40
2018-04-29T17:04:50.252Z,5.33
2018-04-29T17:07:17.855Z,5.30
2018-04-29T17:09:45.437Z,5.03
2018-04-29T17:12:13.088Z,5.30
2018-04-29T17:14:40.776Z,4.77
2018-04-29T17:17:09.197Z,5.13
2018-04-29T17:19:36.719Z,4.77
2018-04-29T17:22:05.084Z,4.83
2018-04-29T17:24:32.654Z,5.30
2018-04-29T17:27:01.068Z,5.83
2018-04-29T17:29:28.684Z,4.77
2018-04-29T17:31:56.227Z,5.17
2018-04-29T17:34:23.830Z,5.37
2018-04-29T17:36:51.398Z,4.87
2018-04-29T17:39:19.010Z,5.03
2018-04-29T17:41:46.672Z,4.90
2018-04-29T17:44:14.273Z,4.67
2018-04-29T17:46:41.821Z,4.73
2018-04-29T17:49:10.177Z,5.07
2018-04-29T17:51:37.804Z,5.37
2018-04-29T17:54:05.491Z,5.17
2018-04-29T17:56:33.133Z,5.20
2018-04-29T17:59:00.776Z,4.77
2018-04-29T18:01:28.438Z,5.20
2018-04-29T18:03:56.844Z,4.77
2018-04-29T18:06:24.417Z,5.30
2018-04-29T18:08:51.983Z,5.07
2018-04-29T18:11:19.577Z,5.47
2018-04-29T18:13:47.180Z,6.23
2018-04-29T18:16:14.848Z,5.20
2018-04-29T18:18:42.462Z,4.30
2018-04-29T18:21:10.901Z,4.70
2018-04-29T18:23:38.523Z,5.03
2018-04-29T18:26:06.129Z,5.27
2018-04-29T18:28:33.712Z,4.93
2018-04-29T18:31:02.146Z,5.00
2018-04-29T18:33:29.704Z,4.67
2018-04-29T18:35:57.312Z,5.17
2018-04-29T18:38:24.836Z,5.00
2018-04-29T18:40:52.484Z,4.87
2018-04-29T18:43:20.144Z,4.63
2018-04-29T18:45:47.728Z,5.77
2018-04-29T18:48:15.377Z,5.23
2018-04-29T18:50:43.210Z,4.93
2018-04-29T18:53:10.656Z,5.10
2018-04-29T18:55:39.011Z,5.40
2018-04-29T18:58:07.370Z,5.10
2018-04-29T19:00:34.932Z,4.73
2018-04-29T19:03:02.522Z,4.90
2018-04-29T19:05:52.578Z,5.10
2018-04-29T19:08:20.152Z,4.57
2018-04-29T19:10:47.727Z,4.60
2018-04-29T19:13:16.106Z,4.87
2018-04-29T19:15:43.632Z,4.87
2018-04-29T19:18:11.269Z,4.63
2018-04-29T19:20:38.805Z,5.07
2018-04-29T19:23:07.172Z,3.97
2018-04-29T19:25:34.719Z,4.30
2018-04-29T19:28:02.570Z,4.10
2018-04-29T19:30:30.167Z,5.20
2018-04-29T19:32:57.812Z,5.00
2018-04-29T19:35:25.474Z,5.10
2018-04-29T19:37:53.099Z,5.10
2018-04-29T19:40:20.646Z,4.60
2018-04-29T19:42:48.250Z,5.00
2018-04-29T19:45:16.689Z,4.83
2018-04-29T19:47:44.688Z,4.80
2018-04-29T19:50:12.223Z,5.03
2018-04-29T19:52:39.807Z,5.10
2018-04-29T19:55:07.430Z,5.27
2018-04-29T19:57:35.055Z,5.60
2018-04-29T20:00:02.665Z,5.60
2018-04-29T20:02:30.246Z,5.30
2018-04-29T20:04:57.878Z,4.63
2018-04-29T20:07:25.438Z,5.10
2018-04-29T20:09:53.030Z,5.23
2018-04-29T20:12:20.584Z,5.40
2018-04-29T20:14:48.185Z,6.17
2018-04-29T20:17:15.730Z,5.87
2018-04-29T20:19:44.076Z,5.63
2018-04-29T20:22:11.656Z,5.53
2018-04-29T20:24:39.304Z,5.17
2018-04-29T20:27:06.894Z,5.00
2018-04-29T20:29:34.504Z,5.67
2018-04-29T20:32:02.090Z,5.57
2018-04-29T20:34:29.644Z,5.50
2018-04-29T20:36:57.352Z,4.60
2018-04-29T20:39:25.692Z,4.80
2018-04-29T20:41:53.304Z,4.77
2018-04-29T20:44:20.885Z,5.43
2018-04-29T20:46:48.506Z,4.90
2018-04-29T20:49:16.028Z,5.40
2018-04-29T20:51:43.642Z,4.57
2018-04-29T20:54:11.222Z,5.10
2018-04-29T20:56:38.812Z,4.97
2018-04-29T20:59:06.431Z,4.77
2018-04-29T21:01:34.023Z,5.10
2018-04-29T21:04:01.621Z,5.07
2018-04-29T21:06:30.012Z,4.90
2018-04-29T21:08:57.576Z,5.37
2018-04-29T21:11:25.120Z,4.87
2018-04-29T21:13:52.694Z,4.97
2018-04-29T21:16:20.246Z,5.07
2018-04-29T21:18:48.708Z,5.23
2018-04-29T21:21:16.248Z,5.67
2018-04-29T21:23:43.838Z,5.23
2018-04-29T21:26:11.356Z,4.97
2018-04-29T21:28:38.992Z,6.63
2018-04-29T21:31:06.524Z,5.67
2018-04-29T21:33:34.884Z,5.50
2018-04-29T21:36:02.456Z,4.97
2018-04-29T21:38:30.784Z,5.77
2018-04-29T21:40:58.371Z,5.17
2018-04-29T21:43:26.268Z,4.87
2018-04-29T21:45:54.609Z,5.40
2018-04-29T21:48:22.192Z,4.67
2018-04-29T21:50:49.809Z,5.07
2018-04-29T21:53:17.363Z,5.00
2018-04-29T21:55:44.960Z,5.07
2018-04-29T21:58:12.516Z,5.40
2018-04-29T22:00:40.121Z,5.37
2018-04-29T22:03:07.708Z,5.20
2018-04-29T22:05:35.314Z,5.43
2018-04-29T22:08:02.993Z,5.27
2018-04-29T22:10:30.650Z,5.00
2018-04-29T22:13:03.966Z,5.30
2018-04-29T22:15:31.596Z,5.23
2018-04-29T22:17:59.148Z,5.60
2018-04-29T22:20:26.846Z,5.77
2018-04-29T22:22:54.428Z,4.60
2018-04-29T22:25:22.040Z,5.60
2018-04-29T22:27:49.716Z,4.67
2018-04-29T22:30:17.366Z,4.50
2018-04-29T22:32:45.021Z,5.00
2018-04-29T22:35:12.579Z,5.67
2018-04-29T22:37:40.187Z,5.07
2018-04-29T22:40:07.760Z,4.97
2018-04-29T22:42:35.416Z,4.80
2018-04-29T22:45:02.975Z,4.90
2018-04-29T22:47:30.563Z,4.20
2018-04-29T22:49:58.237Z,5.27
2018-04-29T22:52:25.804Z,5.43
2018-04-29T22:54:53.324Z,4.50
2018-04-29T22:57:20.944Z,4.60
2018-04-29T22:59:48.517Z,5.40
2018-04-29T23:02:16.219Z,5.63
2018-04-29T23:04:43.885Z,4.83
2018-04-29T23:07:11.484Z,5.20
2018-04-29T23:09:39.845Z,5.50
2018-04-29T23:12:07.415Z,5.67
2018-04-29T23:14:35.044Z,5.43
2018-04-29T23:17:02.681Z,5.53
2018-04-29T23:19:30.316Z,4.93
2018-04-29T23:21:58.683Z,5.60
2018-04-29T23:24:26.301Z,5.27
2018-04-29T23:26:53.863Z,5.30
2018-04-29T23:29:21.475Z,5.30
2018-04-29T23:31:49.822Z,4.43
2018-04-29T23:34:17.403Z,5.00
2018-04-29T23:36:44.972Z,5.00
2018-04-29T23:39:12.563Z,5.13
2018-04-29T23:41:40.137Z,5.43
2018-04-29T23:44:07.708Z,4.83
2018-04-29T23:46:35.347Z,4.83
2018-04-29T23:49:02.959Z,5.37
2018-04-29T23:51:30.558Z,5.47
2018-04-29T23:53:58.212Z,4.80
2018-04-29T23:56:25.818Z,5.37
2018-04-29T23:58:53.462Z,5.10
